Time;durP1;ratioP1;P1;durP2;ratioP2;P2;SDS_P1;SDS_P2;PMS_P1;PMS_P2;Temp;Humidity;BMP_temperature;BMP_pressure;BME280_temperature;BME280_humidity;BME280_pressure;Samples;Min_cycle;Max_cycle;Signal;HPM_P1;HPM_P2
2021/01/30 00:00:28;;;;;;;27.05;15.43;;;;;;;-1.83;82.74;98286.06;1671930;84;20221;-72
2021/01/30 00:02:57;;;;;;;26.77;15.63;;;;;;;-1.83;82.74;98286.06;1698626;83;21615;-72
2021/01/30 00:05:26;;;;;;;25.35;14.53;;;;;;;-1.80;82.54;98290.17;1675436;83;22073;-71
2021/01/30 00:07:56;;;;;;;29.67;15.47;;;;;;;-1.80;82.49;98295.02;1722145;83;21172;-72
2021/01/30 00:10:25;;;;;;;26.48;15.40;;;;;;;-1.80;82.45;98295.53;1713319;82;21193;-72
2021/01/30 00:12:55;;;;;;;28.13;15.10;;;;;;;-1.79;82.37;98303.34;1679488;83;21318;-76
2021/01/30 00:15:25;;;;;;;28.05;15.50;;;;;;;-1.81;82.22;98301.41;1715839;82;21679;-76
2021/01/30 00:17:56;;;;;;;29.50;16.27;;;;;;;-1.81;82.58;98300.58;1721468;82;21146;-78
2021/01/30 00:20:28;;;;;;;31.37;16.40;;;;;;;-1.81;82.49;98309.45;1714005;82;21149;-73
2021/01/30 00:22:56;;;;;;;30.20;16.87;;;;;;;-1.78;82.55;98310.88;1718085;83;21210;-76
2021/01/30 00:25:28;;;;;;;26.97;15.95;;;;;;;-1.77;82.39;98313.88;1707968;82;21662;-72
2021/01/30 00:27:57;;;;;;;28.57;16.97;;;;;;;-1.76;82.55;98330.25;1718361;82;21289;-77
2021/01/30 00:30:27;;;;;;;30.07;16.53;;;;;;;-1.75;82.65;98322.01;1712859;83;21146;-77
2021/01/30 00:32:57;;;;;;;28.67;16.70;;;;;;;-1.72;82.57;98319.41;1716795;82;21307;-73
2021/01/30 00:35:26;;;;;;;27.42;15.70;;;;;;;-1.72;82.45;98318.06;1692313;84;21130;-73
2021/01/30 00:37:54;;;;;;;30.17;16.57;;;;;;;-1.73;82.25;98315.90;1681748;83;21152;-72
2021/01/30 00:40:23;;;;;;;;;;;;;;;-1.72;82.20;98318.86;1696433;84;21965;-76
2021/01/30 00:42:50;;;;;;;29.70;16.70;;;;;;;-1.73;82.00;98320.44;1689500;83;20221;-75
2021/01/30 00:45:22;;;;;;;30.83;17.73;;;;;;;-1.75;82.05;98315.81;1686283;83;21139;-78
2021/01/30 00:47:50;;;;;;;33.53;17.97;;;;;;;-1.76;81.83;98322.20;1704986;83;21177;-74
2021/01/30 00:50:18;;;;;;;30.10;17.17;;;;;;;-1.77;82.03;98324.06;1695478;83;21164;-73
2021/01/30 00:52:47;;;;;;;30.37;16.37;;;;;;;-1.76;82.02;98328.91;1682966;83;21212;-73
2021/01/30 00:55:19;;;;;;;31.40;16.23;;;;;;;-1.77;81.62;98326.74;1686943;84;21507;-75
2021/01/30 00:57:48;;;;;;;30.67;16.50;;;;;;;-1.79;81.36;98328.00;1688606;83;21149;-75
2021/01/30 01:00:20;;;;;;;31.90;18.30;;;;;;;-1.82;81.09;98326.56;1689072;84;21188;-72
2021/01/30 01:02:49;;;;;;;32.47;16.93;;;;;;;-1.85;80.64;98343.62;1714697;83;21284;-73
2021/01/30 01:08:12;;;;;;;28.35;18.50;;;;;;;-1.88;81.15;98352.92;1803427;77;30397;-76
2021/01/30 01:10:40;;;;;;;32.55;18.65;;;;;;;-1.89;81.43;98355.80;1721795;82;21175;-76
2021/01/30 01:13:08;;;;;;;34.05;18.95;;;;;;;-1.85;81.29;98359.20;1715227;80;21763;-76
2021/01/30 01:15:35;;;;;;;36.27;19.43;;;;;;;-1.82;81.34;98366.78;1733925;82;21161;-76
2021/01/30 01:18:04;;;;;;;31.23;17.25;;;;;;;-1.81;81.20;98366.27;1728497;82;22374;-72
2021/01/30 01:20:32;;;;;;;33.25;18.57;;;;;;;-1.84;80.70;98378.77;1700815;81;21156;-75
2021/01/30 01:23:01;;;;;;;28.23;16.27;;;;;;;-1.85;80.48;98382.50;1696534;83;21282;-75
2021/01/30 01:25:29;;;;;;;29.90;16.97;;;;;;;-1.90;80.28;98383.16;1740509;82;21196;-75
2021/01/30 01:27:57;;;;;;;31.60;17.27;;;;;;;-1.94;79.42;98384.09;1745490;80;21159;-73
2021/01/30 01:30:25;;;;;;;29.00;16.32;;;;;;;-1.97;79.83;98387.70;1724148;80;21122;-72
2021/01/30 01:32:54;;;;;;;31.20;17.67;;;;;;;-2.01;79.66;98390.52;1715631;82;21581;-74
2021/01/30 01:35:28;;;;;;;30.10;17.30;;;;;;;-2.05;80.09;98388.77;1727066;80;21121;-74
2021/01/30 01:37:56;;;;;;;29.90;16.83;;;;;;;-2.03;80.24;98398.79;1729101;82;21672;-75
2021/01/30 01:40:37;;;;;;;24.70;14.65;;;;;;;-2.03;79.64;98401.47;1715078;80;21585;-74
2021/01/30 01:43:18;;;;;;;27.77;14.90;;;;;;;-2.04;78.96;98406.52;1725983;82;21140;-75
2021/01/30 01:46:09;;;;;;;29.67;15.53;;;;;;;-2.06;78.80;98412.61;1732570;80;21128;-74
2021/01/30 01:48:41;;;;;;;27.77;15.07;;;;;;;-2.07;78.26;98420.84;1725605;83;21236;-77
2021/01/30 01:51:12;;;;;;;28.43;14.40;;;;;;;-2.13;76.81;98419.86;1727933;82;21147;-75
2021/01/30 01:53:41;;;;;;;24.77;14.30;;;;;;;-2.19;76.86;98415.85;1675359;83;21133;-75
2021/01/30 01:56:15;;;;;;;25.73;14.33;;;;;;;-2.21;77.52;98424.63;1744217;80;21701;-78
2021/01/30 01:58:45;;;;;;;30.23;15.63;;;;;;;-2.23;77.32;98428.87;1728227;82;21093;-74
2021/01/30 02:01:13;;;;;;;24.13;13.40;;;;;;;-2.27;76.70;98432.98;1709443;82;21136;-78
2021/01/30 02:03:44;;;;;;;23.73;13.38;;;;;;;-2.30;75.90;98436.08;1714469;82;21123;-76
2021/01/30 02:06:12;;;;;;;26.07;14.60;;;;;;;-2.33;76.60;98437.87;1720798;82;21128;-76
2021/01/30 02:08:40;;;;;;;26.77;14.63;;;;;;;-2.31;77.00;98441.16;1718629;83;21180;-77
2021/01/30 02:11:08;;;;;;;26.05;14.15;;;;;;;-2.33;76.49;98445.08;1717034;82;21164;-77
2021/01/30 02:13:53;;;;;;;25.70;13.25;;;;;;;-2.35;76.55;98444.47;1741829;80;21162;-77
2021/01/30 02:16:35;;;;;;;26.63;14.40;;;;;;;-2.39;75.84;98449.92;1715703;83;21301;-76
2021/01/30 02:19:53;;;;;;;23.87;13.37;;;;;;;-2.40;76.71;98451.77;1715544;82;21142;-77
2021/01/30 02:23:04;;;;;;;25.75;13.65;;;;;;;-2.42;76.22;98455.69;1716298;80;21121;-73
2021/01/30 02:25:48;;;;;;;23.87;12.43;;;;;;;-2.46;76.72;98459.33;1733821;80;21171;-72
2021/01/30 02:28:47;;;;;;;26.77;14.27;;;;;;;-2.51;75.68;98463.15;1705104;81;21152;-73
2021/01/30 02:32:03;;;;;;;26.63;13.10;;;;;;;-2.53;76.13;98463.05;1725845;82;21223;-72
2021/01/30 02:34:55;;;;;;;25.10;12.87;;;;;;;-2.58;75.16;98460.47;1720318;81;21148;-74
2021/01/30 02:37:57;;;;;;;24.77;14.00;;;;;;;-2.62;75.34;98464.60;1631777;85;21224;-75
2021/01/30 02:40:25;;;;;;;26.53;13.63;;;;;;;-2.66;75.21;98471.39;1724373;82;21238;-73
2021/01/30 02:43:06;;;;;;;25.73;13.57;;;;;;;-2.70;75.64;98466.16;1724353;82;21149;-76
2021/01/30 02:45:38;;;;;;;26.80;14.07;;;;;;;-2.74;75.92;98469.46;1716443;82;21219;-76
2021/01/30 02:48:10;;;;;;;26.67;14.00;;;;;;;-2.82;75.24;98473.68;1674624;84;21180;-72
2021/01/30 02:50:47;;;;;;;28.40;15.40;;;;;;;-2.94;75.41;98476.67;1718607;80;21173;-72
2021/01/30 02:53:30;;;;;;;26.87;14.20;;;;;;;-3.01;76.27;98470.50;1715117;83;21189;-73
2021/01/30 02:56:00;;;;;;;25.83;14.27;;;;;;;-3.08;75.94;98483.86;1731354;80;21156;-75
2021/01/30 02:58:36;;;;;;;29.07;14.77;;;;;;;-3.15;76.02;98486.22;1737458;82;21140;-73
2021/01/30 03:01:04;;;;;;;31.07;16.90;;;;;;;-3.22;76.37;98484.38;1645727;84;21298;-73
2021/01/30 03:03:32;;;;;;;32.53;16.97;;;;;;;-3.24;76.62;98485.62;1701427;82;21172;-74
2021/01/30 03:06:05;;;;;;;;;;;;;;;-3.28;76.91;98487.86;1713250;81;21262;-72
2021/01/30 03:08:44;;;;;;;35.97;18.00;;;;;;;-3.32;76.77;98492.49;1674451;81;20247;-74
2021/01/30 03:11:17;;;;;;;33.87;17.13;;;;;;;-3.38;76.90;98493.29;1702901;82;21551;-76
2021/01/30 03:14:11;;;;;;;34.00;17.00;;;;;;;-3.42;77.13;98499.58;1675129;82;21149;-75
2021/01/30 03:16:40;;;;;;;34.27;18.17;;;;;;;-3.45;77.12;98498.64;1721996;81;21164;-76
2021/01/30 03:19:30;;;;;;;33.40;16.73;;;;;;;-3.47;77.20;98507.37;1709731;84;21197;-77
2021/01/30 03:22:10;;;;;;;32.07;16.07;;;;;;;-3.49;77.55;98516.09;1722984;81;21588;-75
2021/01/30 03:24:45;;;;;;;36.67;18.40;;;;;;;-3.50;77.68;98522.48;1743962;81;21168;-77
2021/01/30 03:27:29;;;;;;;34.30;17.93;;;;;;;-3.49;77.90;98529.47;1715389;82;21147;-74
2021/01/30 03:29:58;;;;;;;38.83;19.30;;;;;;;-3.50;77.78;98530.51;1745542;82;21116;-76
2021/01/30 03:32:27;;;;;;;33.27;17.10;;;;;;;-3.51;77.78;98538.20;1745122;81;21135;-73
2021/01/30 03:34:57;;;;;;;35.67;18.13;;;;;;;-3.55;77.69;98540.16;1732560;82;21568;-75
2021/01/30 03:37:25;;;;;;;34.43;18.07;;;;;;;-3.57;78.00;98540.37;1742555;81;21134;-77
2021/01/30 03:39:53;;;;;;;35.40;18.30;;;;;;;-3.58;77.98;98545.39;1721663;83;21145;-72
2021/01/30 03:42:20;;;;;;;36.03;16.87;;;;;;;-3.61;77.66;98552.47;1743459;80;21616;-72
2021/01/30 03:44:49;;;;;;;38.20;19.30;;;;;;;-3.64;77.85;98546.71;1721629;83;21561;-75
2021/01/30 03:47:17;;;;;;;34.95;17.92;;;;;;;-3.66;78.00;98547.41;1717758;81;21180;-71
2021/01/30 03:49:45;;;;;;;;;;;;;;;-3.69;78.48;98543.81;1726232;83;21100;-72
2021/01/30 03:52:13;;;;;;;37.15;17.87;;;;;;;-3.72;78.30;98548.22;1720342;82;20148;-76
2021/01/30 03:54:40;;;;;;;39.03;19.70;;;;;;;-3.78;78.25;98549.83;1723173;81;21584;-75
2021/01/30 03:57:08;;;;;;;39.30;19.12;;;;;;;-3.83;78.42;98553.61;1734008;81;21126;-72
2021/01/30 03:59:36;;;;;;;42.83;21.42;;;;;;;-3.88;78.49;98554.72;1720267;83;21129;-76
2021/01/30 04:02:07;;;;;;;41.63;20.92;;;;;;;-3.95;78.52;98559.21;1720560;82;21117;-75
2021/01/30 04:04:35;;;;;;;39.80;21.60;;;;;;;-4.00;78.97;98566.46;1733780;81;21567;-77
2021/01/30 04:07:02;;;;;;;41.90;21.68;;;;;;;-4.04;79.20;98565.22;1683784;84;21184;-76
2021/01/30 04:09:30;;;;;;;50.25;24.30;;;;;;;-4.04;79.35;98567.05;1731337;81;21136;-76
2021/01/30 04:11:58;;;;;;;57.90;27.60;;;;;;;-4.08;79.37;98567.98;1722609;83;21183;-76
2021/01/30 04:14:26;;;;;;;49.15;22.85;;;;;;;-4.14;79.26;98561.24;1719432;82;21131;-73
2021/01/30 04:16:55;;;;;;;40.63;19.80;;;;;;;-4.18;79.54;98576.86;1711384;83;21183;-72
2021/01/30 04:19:22;;;;;;;39.67;20.35;;;;;;;-4.24;79.56;98582.97;1718950;82;21152;-72
2021/01/30 04:21:50;;;;;;;36.20;18.42;;;;;;;-4.28;79.67;98589.73;1707864;84;21574;-73
2021/01/30 04:24:18;;;;;;;38.70;19.57;;;;;;;-4.30;80.17;98594.95;1733137;81;21235;-73
2021/01/30 04:26:47;;;;;;;37.93;18.82;;;;;;;-4.34;79.92;98587.83;1728896;82;21185;-75
2021/01/30 04:29:15;;;;;;;37.87;18.37;;;;;;;-4.39;79.84;98587.59;1714899;81;21137;-78
2021/01/30 04:31:43;;;;;;;35.95;17.80;;;;;;;-4.44;79.91;98584.67;1725423;83;21105;-75
2021/01/30 04:34:11;;;;;;;35.90;17.90;;;;;;;-4.46;80.09;98591.23;1733318;81;21627;-75
2021/01/30 04:36:40;;;;;;;37.03;17.53;;;;;;;-4.51;80.01;98594.48;1708354;82;21116;-76
2021/01/30 04:39:07;;;;;;;34.73;17.92;;;;;;;-4.54;80.12;98606.37;1715319;83;21190;-75
2021/01/30 04:41:59;;;;;;;38.67;17.87;;;;;;;-4.55;80.29;98606.55;1728366;80;21718;-76
2021/01/30 04:44:35;;;;;;;39.20;19.10;;;;;;;-4.58;80.35;98606.42;1587285;84;21649;-76
2021/01/30 04:47:33;;;;;;;36.13;18.93;;;;;;;-4.62;80.32;98601.67;1686766;84;21155;-76
2021/01/30 04:50:49;;;;;;;36.70;18.77;;;;;;;-4.64;80.58;98602.38;1714809;80;21168;-74
2021/01/30 04:53:34;;;;;;;37.30;20.00;;;;;;;-4.67;80.63;98610.26;1733410;82;21197;-76
2021/01/30 04:56:08;;;;;;;43.30;20.53;;;;;;;-4.72;80.78;98613.18;1703796;81;21121;-75
2021/01/30 04:59:11;;;;;;;37.90;19.93;;;;;;;-4.73;81.16;98621.69;1715528;83;21575;-74
2021/01/30 05:01:51;;;;;;;36.80;19.40;;;;;;;-4.76;81.02;98618.09;1717839;80;21098;-76
2021/01/30 05:04:32;;;;;;;38.10;19.97;;;;;;;-4.84;80.95;98614.22;1714741;83;21576;-74
2021/01/30 05:07:08;;;;;;;42.13;19.97;;;;;;;-4.90;81.10;98601.63;1715216;80;22015;-76
2021/01/30 05:09:56;;;;;;;42.70;20.03;;;;;;;-4.96;81.15;98616.25;1714918;83;21260;-74
2021/01/30 05:13:06;;;;;;;41.65;19.92;;;;;;;-5.01;81.34;98627.49;1721954;80;21620;-75
2021/01/30 05:15:45;;;;;;;39.83;19.07;;;;;;;-5.03;81.44;98634.03;1718793;82;21164;-72
2021/01/30 05:18:21;;;;;;;40.83;20.93;;;;;;;-5.07;81.68;98640.23;1728063;82;21133;-72
2021/01/30 05:20:53;;;;;;;39.13;20.23;;;;;;;-5.09;81.67;98647.61;1699255;83;21169;-73
2021/01/30 05:23:21;;;;;;;43.63;21.67;;;;;;;-5.10;81.64;98655.78;1719403;81;21145;-77
2021/01/30 05:25:54;;;;;;;42.73;20.32;;;;;;;-5.13;81.76;98649.52;1719280;82;21153;-74
2021/01/30 05:28:45;;;;;;;44.27;21.47;;;;;;;-5.13;81.85;98651.65;1714117;81;21125;-73
2021/01/30 05:31:35;;;;;;;47.30;22.23;;;;;;;-5.14;81.84;98655.34;1717373;81;21281;-77
2021/01/30 05:34:17;;;;;;;46.50;21.20;;;;;;;-5.15;81.83;98651.02;1688876;83;21124;-77
2021/01/30 05:37:04;;;;;;;47.03;22.90;;;;;;;-5.15;81.82;98660.35;1656521;84;21149;-76
2021/01/30 05:39:55;;;;;;;48.23;22.73;;;;;;;-5.16;81.82;98665.39;1709560;81;21149;-76
2021/01/30 05:42:44;;;;;;;46.27;21.77;;;;;;;-5.18;81.68;98664.22;1751520;82;21105;-78
2021/01/30 05:45:30;;;;;;;45.27;20.63;;;;;;;-5.18;81.81;98655.39;1732301;80;21101;-77
2021/01/30 05:47:58;;;;;;;42.97;21.17;;;;;;;-5.15;81.59;98667.02;1755376;82;21112;-78
2021/01/30 05:50:44;;;;;;;43.28;21.10;;;;;;;-5.17;81.44;98658.39;1714908;80;21167;-76
2021/01/30 05:53:14;;;;;;;39.63;20.50;;;;;;;-5.18;81.43;98660.72;1714703;84;21220;-77
2021/01/30 05:55:43;;;;;;;44.83;20.60;;;;;;;-5.17;81.47;98651.72;1730187;80;21149;-76
2021/01/30 05:58:14;;;;;;;42.58;20.30;;;;;;;-5.13;81.40;98654.31;1741371;82;21121;-76
2021/01/30 06:00:42;;;;;;;40.70;20.87;;;;;;;-5.11;81.37;98650.98;1713632;81;21135;-76
2021/01/30 06:03:13;;;;;;;;;;;;;;;-5.07;81.47;98657.58;1714570;82;21122;-73
2021/01/30 06:05:47;;;;;;;41.37;17.80;;;;;;;-5.02;81.31;98655.67;1715405;80;20253;-76
2021/01/30 06:08:29;;;;;;;39.67;19.80;;;;;;;-4.99;81.18;98644.13;1715003;84;21145;-77
2021/01/30 06:11:12;;;;;;;43.93;20.10;;;;;;;-4.97;80.97;98650.09;1721558;80;21196;-72
2021/01/30 06:13:58;;;;;;;44.43;19.90;;;;;;;-4.93;80.94;98655.89;1696562;84;21202;-74
2021/01/30 06:16:48;;;;;;;42.07;20.50;;;;;;;-4.92;80.96;98650.35;1733955;80;21154;-72
2021/01/30 06:19:23;;;;;;;40.03;18.63;;;;;;;-4.88;80.83;98654.81;1715575;82;21178;-72
2021/01/30 06:22:21;;;;;;;42.67;19.83;;;;;;;-4.83;80.56;98654.54;1715238;80;21135;-72
2021/01/30 06:24:49;;;;;;;39.35;19.42;;;;;;;-4.80;80.57;98656.83;1724008;82;21131;-75
2021/01/30 06:27:28;;;;;;;39.92;18.92;;;;;;;-4.76;80.53;98666.63;1721575;80;21580;-73
2021/01/30 06:30:00;;;;;;;46.10;20.37;;;;;;;-4.72;80.54;98667.39;1715091;84;21699;-75
2021/01/30 06:32:45;;;;;;;54.13;22.10;;;;;;;-4.66;80.61;98668.48;1729349;80;21090;-76
2021/01/30 06:35:23;;;;;;;47.50;22.43;;;;;;;-4.63;80.49;98660.89;1730152;82;21145;-74
2021/01/30 06:38:04;;;;;;;47.23;22.83;;;;;;;-4.58;80.24;98653.14;1737486;80;21190;-75
2021/01/30 06:40:55;;;;;;;50.60;21.37;;;;;;;-4.52;80.34;98656.39;1715389;82;21150;-76
2021/01/30 06:43:31;;;;;;;46.33;21.87;;;;;;;-4.43;79.92;98663.77;1716064;80;21580;-73
2021/01/30 06:46:12;;;;;;;47.63;22.50;;;;;;;-4.36;80.03;98656.63;1715286;84;21129;-75
2021/01/30 06:48:48;;;;;;;47.30;21.43;;;;;;;-4.29;79.77;98660.69;1688700;82;21600;-74
2021/01/30 06:51:26;;;;;;;41.60;21.50;;;;;;;-4.20;79.77;98668.89;1742162;82;21530;-78
2021/01/30 06:53:55;;;;;;;45.10;21.90;;;;;;;-4.12;79.43;98675.41;1716348;80;21159;-77
2021/01/30 06:56:26;;;;;;;43.07;20.57;;;;;;;-4.05;79.23;98687.79;1712208;83;21137;-77
2021/01/30 06:59:05;;;;;;;50.70;25.90;;;;;;;-3.96;78.97;98692.50;1712569;80;21181;-77
2021/01/30 07:01:44;;;;;;;55.20;27.07;;;;;;;-3.95;78.59;98688.81;1715326;83;21169;-75
2021/01/30 07:04:49;;;;;;;53.67;27.10;;;;;;;-3.92;78.69;98701.77;1726666;80;21176;-73
2021/01/30 07:07:31;;;;;;;52.70;25.60;;;;;;;-3.89;78.49;98714.74;1724348;83;21211;-78
2021/01/30 07:10:24;;;;;;;48.33;24.93;;;;;;;-3.88;78.33;98718.58;1683116;83;21161;-76
2021/01/30 07:13:22;;;;;;;46.13;25.00;;;;;;;-3.86;78.40;98719.70;1714879;82;21604;-76
2021/01/30 07:16:02;;;;;;;55.20;28.15;;;;;;;-3.83;78.53;98723.84;1737391;82;21220;-75
2021/01/30 07:18:33;;;;;;;66.13;32.50;;;;;;;-3.88;78.22;98727.93;1685411;81;21212;-75
2021/01/30 07:21:12;;;;;;;57.93;28.40;;;;;;;-3.83;78.84;98722.50;1726242;83;21121;-71
2021/01/30 07:23:58;;;;;;;57.23;28.27;;;;;;;-3.79;78.76;98730.47;1755074;80;21263;-78
2021/01/30 07:26:37;;;;;;;53.33;28.80;;;;;;;-3.76;78.19;98732.22;1717740;83;21137;-77
2021/01/30 07:29:12;;;;;;;50.40;26.60;;;;;;;-3.71;78.03;98735.13;1732938;81;21177;-76
2021/01/30 07:31:49;;;;;;;49.73;24.60;;;;;;;-3.65;77.82;98737.55;1736942;81;21567;-73
2021/01/30 07:34:27;;;;;;;44.93;24.67;;;;;;;-3.60;77.33;98733.77;1685903;81;21200;-74
2021/01/30 07:37:03;;;;;;;46.48;23.70;;;;;;;-3.54;77.49;98737.81;1713078;84;21207;-75
2021/01/30 07:39:57;;;;;;;49.57;25.13;;;;;;;-3.47;77.11;98734.70;1711713;81;21169;-72
2021/01/30 07:42:53;;;;;;;44.43;23.53;;;;;;;-3.37;77.28;98734.34;1700293;84;21568;-75
2021/01/30 07:45:32;;;;;;;44.27;23.43;;;;;;;-3.27;76.48;98728.95;1711914;81;21129;-76
2021/01/30 07:48:30;;;;;;;48.00;25.63;;;;;;;-3.18;76.20;98736.78;1755287;81;21125;-76
2021/01/30 07:51:14;;;;;;;53.23;24.83;;;;;;;-3.09;75.77;98753.01;1716491;80;21122;-74
2021/01/30 07:53:42;;;;;;;50.10;25.47;;;;;;;-3.00;76.27;98743.27;1725031;81;21084;-73
2021/01/30 07:56:22;;;;;;;43.92;24.07;;;;;;;-2.88;75.74;98752.38;1715252;82;21141;-74
2021/01/30 07:59:07;;;;;;;45.23;24.50;;;;;;;-2.80;75.51;98756.73;1738132;82;21541;-77
2021/01/30 08:01:57;;;;;;;42.77;22.97;;;;;;;-2.71;75.07;98755.55;1729992;81;21137;-75
2021/01/30 08:04:58;;;;;;;43.13;23.93;;;;;;;-2.67;74.62;98758.13;1664589;82;21255;-74
2021/01/30 08:07:47;;;;;;;52.00;27.80;;;;;;;-2.60;74.89;98754.95;1721918;81;21181;-77
2021/01/30 08:10:35;;;;;;;52.27;27.47;;;;;;;-2.51;74.66;98752.93;1720317;83;21154;-74
2021/01/30 08:13:17;;;;;;;47.20;24.60;;;;;;;-2.41;74.68;98754.20;1720935;81;21097;-73
2021/01/30 08:15:56;;;;;;;45.93;24.60;;;;;;;-2.36;73.96;98752.25;1718169;81;21721;-76
2021/01/30 08:18:40;;;;;;;48.97;25.77;;;;;;;-2.35;73.61;98754.71;1715388;81;21126;-77
2021/01/30 08:21:35;;;;;;;49.97;25.83;;;;;;;-2.27;73.97;98745.15;1728576;82;21107;-76
2021/01/30 08:24:34;;;;;;;46.13;24.53;;;;;;;-2.19;73.74;98752.17;1719663;81;21157;-74
2021/01/30 08:27:25;;;;;;;44.27;23.77;;;;;;;-2.16;73.32;98749.92;1653316;82;21135;-77
2021/01/30 08:29:57;;;;;;;47.30;23.77;;;;;;;-2.09;73.33;98749.92;1723728;82;21181;-77
2021/01/30 08:32:30;;;;;;;46.13;24.70;;;;;;;-2.01;72.85;98741.17;1739979;80;21119;-77
2021/01/30 08:35:25;;;;;;;45.23;23.57;;;;;;;-1.92;72.81;98742.31;1723453;83;21112;-80
2021/01/30 08:38:03;;;;;;;50.40;24.93;;;;;;;-1.80;72.61;98739.32;1751897;80;21216;-75
2021/01/30 08:40:55;;;;;;;47.17;25.70;;;;;;;-1.66;72.02;98742.30;1709414;83;21190;-74
2021/01/30 08:43:45;;;;;;;51.63;26.73;;;;;;;-1.55;71.72;98745.70;1710281;81;21607;-78
2021/01/30 08:46:33;;;;;;;41.30;23.80;;;;;;;-1.52;71.49;98741.27;1724187;82;21149;-76
2021/01/30 08:49:20;;;;;;;46.95;23.67;;;;;;;-1.53;70.83;98744.46;1743140;81;21211;-72
2021/01/30 08:52:14;;;;;;;44.15;21.07;;;;;;;-1.56;71.18;98732.80;1709698;83;21168;-77
2021/01/30 08:54:44;;;;;;;42.73;20.97;;;;;;;-1.51;71.10;98737.02;1714002;81;21160;-77
2021/01/30 08:57:36;;;;;;;37.77;18.53;;;;;;;-1.45;70.80;98734.03;1723020;82;21549;-74
2021/01/30 09:00:21;;;;;;;32.40;16.80;;;;;;;-1.34;70.49;98732.02;1722387;81;21131;-73
2021/01/30 09:02:49;;;;;;;30.43;14.40;;;;;;;-1.27;70.46;98720.78;1702731;83;21105;-72
2021/01/30 09:05:28;;;;;;;30.27;15.55;;;;;;;-1.19;69.68;98723.76;1726431;80;21686;-73
2021/01/30 09:08:14;;;;;;;28.57;15.00;;;;;;;-1.13;69.40;98731.78;1725281;82;21135;-74
2021/01/30 09:10:42;;;;;;;30.63;15.17;;;;;;;-1.09;69.47;98718.27;1715291;80;21129;-73
2021/01/30 09:13:19;;;;;;;27.15;15.00;;;;;;;-1.05;69.26;98708.73;1734905;82;21161;-75
2021/01/30 09:15:58;;;;;;;28.90;15.03;;;;;;;-0.96;68.98;98719.53;1726083;80;21169;-78
2021/01/30 09:18:37;;;;;;;27.02;14.30;;;;;;;-0.86;68.22;98717.22;1715125;83;21138;-76
2021/01/30 09:21:12;;;;;;;28.30;13.77;;;;;;;-0.75;67.89;98707.67;1715078;80;21148;-77
2021/01/30 09:24:00;;;;;;;28.03;14.33;;;;;;;-0.69;68.00;98707.66;1750221;80;21133;-77
2021/01/30 09:26:50;;;;;;;;;;;;;;;-0.62;67.78;98714.84;1756257;80;21604;-76
2021/01/30 09:29:26;;;;;;;31.13;16.40;;;;;;;-0.59;68.05;98713.91;1686928;84;20208;-76
2021/01/30 09:31:57;;;;;;;31.50;16.77;;;;;;;-0.54;67.87;98711.91;1729043;80;21145;-75
2021/01/30 09:34:31;;;;;;;32.03;15.53;;;;;;;-0.46;67.77;98717.04;1723544;82;21612;-74
2021/01/30 09:37:00;;;;;;;36.13;16.03;;;;;;;-0.38;67.05;98719.48;1732291;80;21133;-76
2021/01/30 09:39:34;;;;;;;32.00;15.45;;;;;;;-0.28;67.06;98715.80;1723616;82;21196;-77
2021/01/30 09:42:17;;;;;;;33.03;15.93;;;;;;;-0.18;67.27;98721.52;1719397;80;21268;-76
2021/01/30 09:44:50;;;;;;;29.77;15.27;;;;;;;-0.12;66.62;98719.29;1723897;81;21636;-77
2021/01/30 09:47:19;;;;;;;25.20;13.33;;;;;;;-0.09;66.13;98716.17;1737736;80;21524;-80
2021/01/30 09:49:51;;;;;;;26.80;13.10;;;;;;;-0.08;66.34;98716.48;1745466;80;21184;-77
2021/01/30 09:52:19;;;;;;;22.97;12.10;;;;;;;-0.04;66.29;98719.03;1714722;81;21152;-79
2021/01/30 09:54:57;;;;;;;23.10;12.37;;;;;;;0.03;65.73;98723.83;1728123;82;21671;-75
2021/01/30 09:57:26;;;;;;;27.20;13.55;;;;;;;0.10;65.66;98724.63;1723786;80;21194;-74
2021/01/30 09:59:58;;;;;;;26.17;14.17;;;;;;;0.14;65.80;98725.83;1722294;80;21153;-77
2021/01/30 10:02:27;;;;;;;26.37;14.27;;;;;;;0.18;65.44;98722.98;1722191;80;21281;-76
2021/01/30 10:05:08;;;;;;;23.27;13.00;;;;;;;0.18;65.67;98718.95;1732254;82;21125;-76
2021/01/30 10:07:37;;;;;;;25.27;13.17;;;;;;;0.17;64.96;98721.36;1725429;80;21613;-74
2021/01/30 10:10:30;;;;;;;24.72;13.03;;;;;;;0.08;65.06;98710.55;1723471;82;21311;-75
2021/01/30 10:12:59;;;;;;;22.43;11.47;;;;;;;0.08;65.06;98710.55;1723016;80;21774;-75
2021/01/30 10:15:34;;;;;;;22.53;12.00;;;;;;;0.11;65.79;98712.80;1727203;82;21173;-77
2021/01/30 10:18:11;;;;;;;21.43;12.30;;;;;;;0.14;66.29;98711.03;1723434;82;21139;-77
2021/01/30 10:20:50;;;;;;;19.40;11.03;;;;;;;0.12;65.08;98714.47;1724608;80;21568;-76
2021/01/30 10:23:45;;;;;;;20.40;11.33;;;;;;;0.10;65.16;98708.48;1726153;82;21172;-75
2021/01/30 10:26:22;;;;;;;22.73;11.70;;;;;;;0.08;64.62;98709.20;1698030;80;21121;-75
2021/01/30 10:28:58;;;;;;;21.43;11.73;;;;;;;0.01;65.21;98696.34;1703749;81;21600;-73
2021/01/30 10:31:41;;;;;;;21.33;11.77;;;;;;;-0.02;65.16;98694.91;1717520;82;21616;-75
2021/01/30 10:34:31;;;;;;;25.83;14.20;;;;;;;-0.06;64.87;98695.57;1696705;82;21250;-77
2021/01/30 10:37:13;;;;;;;25.10;13.17;;;;;;;-0.08;65.46;98690.94;1740103;80;21124;-77
2021/01/30 10:39:55;;;;;;;24.73;12.83;;;;;;;-0.10;65.93;98683.07;1719155;80;21157;-76
2021/01/30 10:42:25;;;;;;;26.47;13.53;;;;;;;-0.11;65.59;98682.79;1726210;82;21124;-77
2021/01/30 10:45:14;;;;;;;24.83;13.10;;;;;;;-0.03;65.60;98670.94;1728096;80;21327;-79
2021/01/30 10:47:42;;;;;;;23.57;11.93;;;;;;;0.06;65.77;98673.64;1722566;81;21125;-78
2021/01/30 10:50:16;;;;;;;22.75;11.88;;;;;;;0.10;65.19;98674.86;1715525;81;21137;-76
2021/01/30 10:52:44;;;;;;;26.90;13.43;;;;;;;0.12;65.10;98666.05;1706311;82;21195;-76
2021/01/30 10:55:35;;;;;;;25.82;13.62;;;;;;;0.21;65.22;98659.84;1724805;80;21113;-76
2021/01/30 10:58:29;;;;;;;28.10;13.77;;;;;;;0.27;65.98;98660.32;1720915;80;21136;-78
2021/01/30 11:01:05;;;;;;;30.17;15.70;;;;;;;0.39;66.75;98653.98;1720957;80;21619;-80
2021/01/30 11:03:44;;;;;;;29.77;15.70;;;;;;;0.51;65.48;98654.06;1728401;80;21113;-80
2021/01/30 11:06:32;;;;;;;34.30;16.53;;;;;;;0.60;65.45;98665.68;1716902;80;21144;-77
2021/01/30 11:09:16;;;;;;;29.67;15.47;;;;;;;0.68;65.88;98657.00;1717722;80;21121;-81
2021/01/30 11:11:47;;;;;;;28.33;16.33;;;;;;;0.69;65.55;98654.08;1720305;80;21182;-83
2021/01/30 11:14:20;;;;;;;28.73;15.90;;;;;;;0.66;65.04;98655.86;1726822;82;21173;-84
2021/01/30 11:16:47;;;;;;;28.73;16.40;;;;;;;0.64;64.84;98648.54;1701272;82;21203;-82
2021/01/30 11:19:36;;;;;;;34.40;18.70;;;;;;;0.61;64.45;98653.84;1726878;82;21136;-76
2021/01/30 11:22:17;;;;;;;31.52;16.93;;;;;;;0.59;64.94;98652.42;1738803;80;21219;-77
2021/01/30 11:24:52;;;;;;;28.83;16.07;;;;;;;0.62;65.36;98651.98;1724389;80;21579;-73
2021/01/30 11:27:45;;;;;;;31.77;16.47;;;;;;;0.68;65.39;98648.92;1693522;80;21943;-76
2021/01/30 11:30:25;;;;;;;29.03;16.50;;;;;;;0.73;65.77;98641.00;1720832;80;21560;-75
2021/01/30 11:33:01;;;;;;;26.93;15.13;;;;;;;0.77;66.05;98644.87;1712303;80;21155;-76
2021/01/30 11:35:39;;;;;;;29.53;13.97;;;;;;;0.80;65.08;98633.66;1725306;82;21154;-76
2021/01/30 11:38:17;;;;;;;26.80;14.50;;;;;;;0.81;65.08;98640.16;1718401;80;21685;-77
2021/01/30 11:40:46;;;;;;;26.93;13.62;;;;;;;0.82;65.51;98642.33;1726373;80;21146;-76
2021/01/30 11:43:15;;;;;;;26.13;14.70;;;;;;;0.85;64.57;98635.15;1723195;80;21141;-78
2021/01/30 11:45:43;;;;;;;24.57;13.77;;;;;;;0.83;64.42;98634.05;1725295;80;21172;-77
2021/01/30 11:48:11;;;;;;;;;;;;;;;0.84;65.11;98628.94;1718788;81;21515;-77
2021/01/30 11:50:42;;;;;;;20.57;11.97;;;;;;;0.82;64.14;98632.38;1716912;83;20266;-78
2021/01/30 11:53:13;;;;;;;23.20;12.40;;;;;;;0.81;64.85;98632.62;1709931;81;21152;-78
2021/01/30 11:55:41;;;;;;;19.33;10.97;;;;;;;0.81;64.58;98621.84;1723408;82;21178;-76
2021/01/30 11:58:09;;;;;;;27.05;13.32;;;;;;;0.81;64.06;98619.95;1731878;82;21564;-76
2021/01/30 12:00:37;;;;;;;26.17;13.28;;;;;;;0.80;64.75;98622.37;1734628;81;21603;-76
2021/01/30 12:03:06;;;;;;;22.43;12.70;;;;;;;0.82;65.05;98612.70;1740603;80;21653;-76
2021/01/30 12:05:34;;;;;;;19.98;11.50;;;;;;;0.85;65.30;98616.30;1732690;80;21576;-75
2021/01/30 12:08:03;;;;;;;20.57;10.95;;;;;;;0.88;65.43;98602.39;1692807;83;21144;-74